sensor_id;sensor_type;location;lat;lon;timestamp;pressure;altitude;pressure_sealevel;temperature;humidity
35878;BME280;21982;49.804;24.072;2023-02-11T00:00:52;98536.97;;;-0.89;57.27
35878;BME280;21982;49.804;24.072;2023-02-11T00:03:17;98532.13;;;-0.95;57.78
35878;BME280;21982;49.804;24.072;2023-02-11T00:05:43;98678.47;;;-0.46;58.14
35878;BME280;21982;49.804;24.072;2023-02-11T00:08:08;98418.28;;;-1.65;57.81
35878;BME280;21982;49.804;24.072;2023-02-11T00:10:34;98752.34;;;0.13;58.27
35878;BME280;21982;49.804;24.072;2023-02-11T00:12:59;98713.09;;;0.16;58.35
35878;BME280;21982;49.804;24.072;2023-02-11T00:15:24;98719.16;;;0.17;58.10
35878;BME280;21982;49.804;24.072;2023-02-11T00:17:50;98222.44;;;-3.16;57.80
35878;BME280;21982;49.804;24.072;2023-02-11T00:20:15;98399.38;;;-1.67;57.88
35878;BME280;21982;49.804;24.072;2023-02-11T00:22:41;98278.75;;;-2.86;58.32
35878;BME280;21982;49.804;24.072;2023-02-11T00:25:06;98432.03;;;-1.48;57.90
35878;BME280;21982;49.804;24.072;2023-02-11T00:27:32;98653.72;;;-0.23;57.91
35878;BME280;21982;49.804;24.072;2023-02-11T00:29:57;98707.53;;;0.22;58.18
35878;BME280;21982;49.804;24.072;2023-02-11T00:32:25;98638.34;;;-0.12;58.13
35878;BME280;21982;49.804;24.072;2023-02-11T00:34:51;98654.38;;;-0.04;57.93
35878;BME280;21982;49.804;24.072;2023-02-11T00:37:17;98230.66;;;-2.92;57.69
35878;BME280;21982;49.804;24.072;2023-02-11T00:39:42;98611.47;;;-0.42;57.94
35878;BME280;21982;49.804;24.072;2023-02-11T00:42:10;98637.41;;;-0.11;58.24
35878;BME280;21982;49.804;24.072;2023-02-11T00:44:36;98698.69;;;0.25;58.16
35878;BME280;21982;49.804;24.072;2023-02-11T00:47:02;98468.53;;;-1.19;58.20
35878;BME280;21982;49.804;24.072;2023-02-11T00:49:27;98693.88;;;0.33;58.28
35878;BME280;21982;49.804;24.072;2023-02-11T00:51:52;98692.75;;;0.37;58.43
35878;BME280;21982;49.804;24.072;2023-02-11T00:54:18;98679.63;;;0.39;58.26
35878;BME280;21982;49.804;24.072;2023-02-11T00:56:43;98586.06;;;-0.23;58.62
35878;BME280;21982;49.804;24.072;2023-02-11T00:59:08;98388.44;;;-1.43;57.94
35878;BME280;21982;49.804;24.072;2023-02-11T01:01:34;98366.41;;;-1.81;58.18
35878;BME280;21982;49.804;24.072;2023-02-11T01:03:59;98613.06;;;0.05;58.03
35878;BME280;21982;49.804;24.072;2023-02-11T01:06:27;98664.09;;;0.37;58.25
35878;BME280;21982;49.804;24.072;2023-02-11T01:08:53;98534.13;;;-0.54;58.39
35878;BME280;21982;49.804;24.072;2023-02-11T01:11:20;98587.41;;;-0.31;58.46
35878;BME280;21982;49.804;24.072;2023-02-11T01:13:47;98297.97;;;-1.80;58.44
35878;BME280;21982;49.804;24.072;2023-02-11T01:16:13;98215.63;;;-2.54;58.63
35878;BME280;21982;49.804;24.072;2023-02-11T01:18:39;98612.94;;;-0.22;58.66
35878;BME280;21982;49.804;24.072;2023-02-11T01:21:06;98536.19;;;-0.45;58.51
35878;BME280;21982;49.804;24.072;2023-02-11T01:23:32;98439.34;;;-0.94;58.51
35878;BME280;21982;49.804;24.072;2023-02-11T01:25:57;98483.63;;;-0.66;58.67
35878;BME280;21982;49.804;24.072;2023-02-11T01:28:24;98635.81;;;0.45;58.52
35878;BME280;21982;49.804;24.072;2023-02-11T01:30:50;98431.53;;;-0.79;58.42
35878;BME280;21982;49.804;24.072;2023-02-11T01:33:17;98627.91;;;0.47;58.44
35878;BME280;21982;49.804;24.072;2023-02-11T01:35:43;98631.34;;;0.47;58.81
35878;BME280;21982;49.804;24.072;2023-02-11T01:38:15;98635.53;;;0.50;58.79
35878;BME280;21982;49.804;24.072;2023-02-11T01:43:17;98632.28;;;0.46;58.96
35878;BME280;21982;49.804;24.072;2023-02-11T01:48:32;98473.66;;;-0.44;58.86
35878;BME280;21982;49.804;24.072;2023-02-11T01:51:03;98624.28;;;0.49;58.98
35878;BME280;21982;49.804;24.072;2023-02-11T01:53:31;98211.06;;;-2.34;58.66
35878;BME280;21982;49.804;24.072;2023-02-11T01:56:17;98387.19;;;-1.06;58.82
35878;BME280;21982;49.804;24.072;2023-02-11T01:59:08;98498.66;;;-0.41;59.02
35878;BME280;21982;49.804;24.072;2023-02-11T02:01:38;98518.47;;;-0.24;59.45
35878;BME280;21982;49.804;24.072;2023-02-11T02:04:07;98402.16;;;-0.81;59.10
35878;BME280;21982;49.804;24.072;2023-02-11T02:06:37;98528.16;;;0.02;59.04
35878;BME280;21982;49.804;24.072;2023-02-11T02:09:12;98601.09;;;0.45;58.83
35878;BME280;21982;49.804;24.072;2023-02-11T02:11:39;98617.28;;;0.36;59.79
35878;BME280;21982;49.804;24.072;2023-02-11T02:14:04;98408.06;;;-0.93;59.26
35878;BME280;21982;49.804;24.072;2023-02-11T02:16:35;98486.94;;;-0.48;59.11
35878;BME280;21982;49.804;24.072;2023-02-11T02:22:05;98587.06;;;0.33;59.60
35878;BME280;21982;49.804;24.072;2023-02-11T02:33:19;98588.00;;;0.32;59.04
35878;BME280;21982;49.804;24.072;2023-02-11T02:38:33;98502.59;;;-0.20;59.13
35878;BME280;21982;49.804;24.072;2023-02-11T02:41:06;98325.56;;;-1.33;59.04
35878;BME280;21982;49.804;24.072;2023-02-11T02:43:35;98580.16;;;0.18;59.38
35878;BME280;21982;49.804;24.072;2023-02-11T02:46:15;98566.41;;;0.16;58.88
35878;BME280;21982;49.804;24.072;2023-02-11T02:48:41;98434.69;;;-0.74;59.14
35878;BME280;21982;49.804;24.072;2023-02-11T02:59:47;98566.22;;;0.19;58.99
35878;BME280;21982;49.804;24.072;2023-02-11T03:06:04;98557.09;;;0.12;58.88
35878;BME280;21982;49.804;24.072;2023-02-11T03:08:45;98471.16;;;-0.45;59.13
35878;BME280;21982;49.804;24.072;2023-02-11T03:11:14;98203.41;;;-2.06;59.59
35878;BME280;21982;49.804;24.072;2023-02-11T03:13:42;98547.03;;;0.06;59.25
35878;BME280;21982;49.804;24.072;2023-02-11T03:16:14;98546.09;;;0.07;59.19
35878;BME280;21982;49.804;24.072;2023-02-11T03:18:44;98481.72;;;-0.48;59.11
35878;BME280;21982;49.804;24.072;2023-02-11T03:21:11;98536.81;;;0.03;59.35
35878;BME280;21982;49.804;24.072;2023-02-11T03:23:39;98543.88;;;0.00;59.35
35878;BME280;21982;49.804;24.072;2023-02-11T03:28:46;98551.06;;;-0.03;59.11
35878;BME280;21982;49.804;24.072;2023-02-11T03:31:34;98456.25;;;-0.57;59.01
35878;BME280;21982;49.804;24.072;2023-02-11T03:34:08;98385.84;;;-1.13;59.63
35878;BME280;21982;49.804;24.072;2023-02-11T03:36:59;98284.94;;;-1.64;59.17
35878;BME280;21982;49.804;24.072;2023-02-11T03:39:30;98473.75;;;-0.45;59.05
35878;BME280;21982;49.804;24.072;2023-02-11T03:41:59;98295.91;;;-1.59;59.49
35878;BME280;21982;49.804;24.072;2023-02-11T03:44:44;98541.25;;;0.00;59.16
35878;BME280;21982;49.804;24.072;2023-02-11T03:47:12;98422.41;;;-0.86;59.45
35878;BME280;21982;49.804;24.072;2023-02-11T03:49:40;98543.88;;;0.00;59.17
35878;BME280;21982;49.804;24.072;2023-02-11T03:52:08;98333.56;;;-1.22;58.93
35878;BME280;21982;49.804;24.072;2023-02-11T03:54:38;98462.97;;;-0.39;59.35
35878;BME280;21982;49.804;24.072;2023-02-11T03:57:04;98521.75;;;0.08;59.45
35878;BME280;21982;49.804;24.072;2023-02-11T03:59:30;98521.09;;;0.04;59.25
35878;BME280;21982;49.804;24.072;2023-02-11T04:01:55;98458.97;;;-0.30;59.04
35878;BME280;21982;49.804;24.072;2023-02-11T04:04:23;98513.00;;;0.09;59.24
35878;BME280;21982;49.804;24.072;2023-02-11T04:06:49;98477.88;;;-0.13;59.27
35878;BME280;21982;49.804;24.072;2023-02-11T04:09:15;98385.94;;;-0.70;59.29
35878;BME280;21982;49.804;24.072;2023-02-11T04:11:40;98452.94;;;-0.17;59.47
35878;BME280;21982;49.804;24.072;2023-02-11T04:14:06;98337.50;;;-0.87;59.24
35878;BME280;21982;49.804;24.072;2023-02-11T04:16:31;98493.66;;;0.13;59.72
35878;BME280;21982;49.804;24.072;2023-02-11T04:18:56;98325.91;;;-0.81;59.56
35878;BME280;21982;49.804;24.072;2023-02-11T04:21:22;98439.56;;;-0.11;59.80
35878;BME280;21982;49.804;24.072;2023-02-11T04:23:47;98363.91;;;-0.64;59.35
35878;BME280;21982;49.804;24.072;2023-02-11T04:26:13;98471.16;;;0.12;59.83
35878;BME280;21982;49.804;24.072;2023-02-11T04:28:38;98107.69;;;-1.96;59.43
35878;BME280;21982;49.804;24.072;2023-02-11T04:31:04;98431.56;;;-0.08;59.62
35878;BME280;21982;49.804;24.072;2023-02-11T04:33:29;98138.13;;;-1.84;59.57
35878;BME280;21982;49.804;24.072;2023-02-11T04:35:54;98480.34;;;0.17;59.56
35878;BME280;21982;49.804;24.072;2023-02-11T04:38:20;98360.56;;;-0.67;59.64
35878;BME280;21982;49.804;24.072;2023-02-11T04:43:23;98427.44;;;0.17;59.37
35878;BME280;21982;49.804;24.072;2023-02-11T04:45:48;98424.91;;;0.15;59.55
35878;BME280;21982;49.804;24.072;2023-02-11T04:48:13;98253.75;;;-0.92;59.77
35878;BME280;21982;49.804;24.072;2023-02-11T04:50:40;98382.47;;;-0.14;59.32
35878;BME280;21982;49.804;24.072;2023-02-11T04:53:05;98400.97;;;-0.04;59.40
35878;BME280;21982;49.804;24.072;2023-02-11T04:55:31;98429.47;;;0.12;59.56
35878;BME280;21982;49.804;24.072;2023-02-11T04:57:56;98234.25;;;-0.99;59.41
35878;BME280;21982;49.804;24.072;2023-02-11T05:00:21;98421.75;;;0.10;59.37
35878;BME280;21982;49.804;24.072;2023-02-11T05:02:47;98415.91;;;0.07;59.36
35878;BME280;21982;49.804;24.072;2023-02-11T05:05:12;98404.66;;;0.06;59.22
35878;BME280;21982;49.804;24.072;2023-02-11T05:07:38;98398.59;;;0.06;58.66
35878;BME280;21982;49.804;24.072;2023-02-11T05:10:03;98369.28;;;-0.25;58.98
35878;BME280;21982;49.804;24.072;2023-02-11T05:12:28;98352.34;;;-0.32;58.98
35878;BME280;21982;49.804;24.072;2023-02-11T05:14:54;98321.16;;;-0.60;58.84
35878;BME280;21982;49.804;24.072;2023-02-11T05:17:19;98404.22;;;-0.01;58.45
35878;BME280;21982;49.804;24.072;2023-02-11T05:19:44;98076.38;;;-1.93;58.12
35878;BME280;21982;49.804;24.072;2023-02-11T05:22:10;98173.84;;;-1.59;58.22
35878;BME280;21982;49.804;24.072;2023-02-11T05:24:35;98135.25;;;-1.65;57.93
35878;BME280;21982;49.804;24.072;2023-02-11T05:27:00;98085.63;;;-2.04;58.17
35878;BME280;21982;49.804;24.072;2023-02-11T05:29:26;98406.19;;;-0.18;58.33
35878;BME280;21982;49.804;24.072;2023-02-11T05:31:52;98334.81;;;-0.57;58.06
35878;BME280;21982;49.804;24.072;2023-02-11T05:34:17;98397.34;;;-0.30;57.99
35878;BME280;21982;49.804;24.072;2023-02-11T05:36:43;98398.47;;;-0.34;57.96
35878;BME280;21982;49.804;24.072;2023-02-11T05:39:08;98364.94;;;-0.53;57.89
35878;BME280;21982;49.804;24.072;2023-02-11T05:41:33;98403.13;;;-0.39;57.91
35878;BME280;21982;49.804;24.072;2023-02-11T05:43:59;98317.94;;;-0.78;57.81
35878;BME280;21982;49.804;24.072;2023-02-11T05:46:24;98321.56;;;-0.81;57.66
35878;BME280;21982;49.804;24.072;2023-02-11T05:48:50;98336.59;;;-0.72;57.55
35878;BME280;21982;49.804;24.072;2023-02-11T05:51:15;98261.38;;;-1.17;57.46
35878;BME280;21982;49.804;24.072;2023-02-11T05:53:41;98104.28;;;-2.27;57.33
35878;BME280;21982;49.804;24.072;2023-02-11T05:56:06;98276.50;;;-1.10;57.32
35878;BME280;21982;49.804;24.072;2023-02-11T05:58:31;98275.19;;;-1.17;57.29
35878;BME280;21982;49.804;24.072;2023-02-11T06:00:57;98224.78;;;-1.43;57.38
35878;BME280;21982;49.804;24.072;2023-02-11T06:03:22;98374.22;;;-0.49;57.14
35878;BME280;21982;49.804;24.072;2023-02-11T06:05:47;98114.25;;;-2.05;56.87
35878;BME280;21982;49.804;24.072;2023-02-11T06:08:13;98280.31;;;-1.01;57.08
35878;BME280;21982;49.804;24.072;2023-02-11T06:10:43;98360.84;;;-0.43;57.00
35878;BME280;21982;49.804;24.072;2023-02-11T06:13:09;98227.31;;;-1.13;57.04
35878;BME280;21982;49.804;24.072;2023-02-11T06:15:34;98247.94;;;-1.10;57.03
35878;BME280;21982;49.804;24.072;2023-02-11T06:17:59;98365.69;;;-0.37;56.88
35878;BME280;21982;49.804;24.072;2023-02-11T06:20:25;98351.09;;;-0.39;56.76
35878;BME280;21982;49.804;24.072;2023-02-11T06:22:50;98340.78;;;-0.41;56.62
35878;BME280;21982;49.804;24.072;2023-02-11T06:25:15;98339.19;;;-0.43;56.68
35878;BME280;21982;49.804;24.072;2023-02-11T06:27:41;98349.59;;;-0.43;56.87
35878;BME280;21982;49.804;24.072;2023-02-11T06:30:08;98282.53;;;-0.95;56.78
35878;BME280;21982;49.804;24.072;2023-02-11T06:32:33;98336.88;;;-0.48;56.56
35878;BME280;21982;49.804;24.072;2023-02-11T06:34:59;98108.81;;;-1.72;56.67
35878;BME280;21982;49.804;24.072;2023-02-11T06:37:24;98320.25;;;-0.45;56.81
35878;BME280;21982;49.804;24.072;2023-02-11T06:39:50;98293.19;;;-0.43;56.85
35878;BME280;21982;49.804;24.072;2023-02-11T06:42:15;98232.03;;;-0.77;56.64
35878;BME280;21982;49.804;24.072;2023-02-11T06:44:40;98078.97;;;-1.65;56.45
35878;BME280;21982;49.804;24.072;2023-02-11T06:47:06;98267.38;;;-0.46;56.92
35878;BME280;21982;49.804;24.072;2023-02-11T06:49:31;98263.19;;;-0.48;56.55
35878;BME280;21982;49.804;24.072;2023-02-11T06:51:57;98270.06;;;-0.47;56.52
35878;BME280;21982;49.804;24.072;2023-02-11T06:54:22;98262.34;;;-0.49;56.47
35878;BME280;21982;49.804;24.072;2023-02-11T06:56:48;98252.97;;;-0.51;56.38
35878;BME280;21982;49.804;24.072;2023-02-11T06:59:17;98247.38;;;-0.45;56.01
35878;BME280;21982;49.804;24.072;2023-02-11T07:01:45;98129.19;;;-1.09;56.24
35878;BME280;21982;49.804;24.072;2023-02-11T07:04:10;98211.78;;;-0.86;56.24
35878;BME280;21982;49.804;24.072;2023-02-11T07:06:35;98135.16;;;-1.21;56.76
35878;BME280;21982;49.804;24.072;2023-02-11T07:09:03;98232.06;;;-0.50;56.09
35878;BME280;21982;49.804;24.072;2023-02-11T07:11:29;98194.50;;;-0.73;56.42
35878;BME280;21982;49.804;24.072;2023-02-11T07:13:59;98230.66;;;-0.41;56.07
35878;BME280;21982;49.804;24.072;2023-02-11T07:16:25;98179.19;;;-0.77;56.16
35878;BME280;21982;49.804;24.072;2023-02-11T07:18:50;98236.81;;;-0.56;56.25
35878;BME280;21982;49.804;24.072;2023-02-11T07:21:18;98193.91;;;-0.63;56.03
35878;BME280;21982;49.804;24.072;2023-02-11T07:23:45;98134.44;;;-0.96;56.09
35878;BME280;21982;49.804;24.072;2023-02-11T07:26:12;98218.31;;;-0.25;55.94
35878;BME280;21982;49.804;24.072;2023-02-11T07:28:39;98144.66;;;-0.67;55.95
35878;BME280;21982;49.804;24.072;2023-02-11T07:31:17;97893.59;;;-2.04;55.86
35878;BME280;21982;49.804;24.072;2023-02-11T07:33:43;98054.91;;;-0.99;55.58
35878;BME280;21982;49.804;24.072;2023-02-11T07:36:11;98123.78;;;-0.38;55.54
35878;BME280;21982;49.804;24.072;2023-02-11T07:38:37;98040.00;;;-0.83;55.27
35878;BME280;21982;49.804;24.072;2023-02-11T07:41:05;98228.72;;;0.54;55.07
35878;BME280;21982;49.804;24.072;2023-02-11T07:43:31;98215.91;;;0.64;55.20
35878;BME280;21982;49.804;24.072;2023-02-11T07:45:57;98217.03;;;0.73;54.70
35878;BME280;21982;49.804;24.072;2023-02-11T07:48:23;98220.16;;;0.78;54.76
35878;BME280;21982;49.804;24.072;2023-02-11T07:50:48;98219.22;;;0.79;54.41
35878;BME280;21982;49.804;24.072;2023-02-11T07:53:14;98149.69;;;0.41;54.25
35878;BME280;21982;49.804;24.072;2023-02-11T07:55:39;98178.78;;;0.48;54.76
35878;BME280;21982;49.804;24.072;2023-02-11T07:58:04;98183.16;;;0.47;54.53
35878;BME280;21982;49.804;24.072;2023-02-11T08:00:30;98217.56;;;0.78;54.66
35878;BME280;21982;49.804;24.072;2023-02-11T08:02:58;98146.69;;;0.35;54.13
35878;BME280;21982;49.804;24.072;2023-02-11T08:05:24;98220.47;;;0.86;53.96
35878;BME280;21982;49.804;24.072;2023-02-11T08:07:53;98218.91;;;0.71;53.40
35878;BME280;21982;49.804;24.072;2023-02-11T08:10:20;98154.09;;;0.53;53.81
35878;BME280;21982;49.804;24.072;2023-02-11T08:12:45;98225.91;;;0.95;54.11
35878;BME280;21982;49.804;24.072;2023-02-11T08:15:10;98142.41;;;0.59;54.08
35878;BME280;21982;49.804;24.072;2023-02-11T08:17:36;98221.59;;;1.07;53.97
35878;BME280;21982;49.804;24.072;2023-02-11T08:20:03;98127.09;;;0.54;53.82
35878;BME280;21982;49.804;24.072;2023-02-11T08:22:30;98194.88;;;1.16;53.36
35878;BME280;21982;49.804;24.072;2023-02-11T08:24:56;98217.81;;;1.37;53.32
35878;BME280;21982;49.804;24.072;2023-02-11T08:27:22;98170.53;;;1.28;53.13
35878;BME280;21982;49.804;24.072;2023-02-11T08:29:48;98124.53;;;0.91;53.30
35878;BME280;21982;49.804;24.072;2023-02-11T08:32:14;98048.22;;;0.76;52.97
35878;BME280;21982;49.804;24.072;2023-02-11T08:34:39;98211.88;;;1.82;52.61
35878;BME280;21982;49.804;24.072;2023-02-11T08:37:05;98221.66;;;1.91;52.65
35878;BME280;21982;49.804;24.072;2023-02-11T08:39:30;98130.75;;;1.38;52.44
35878;BME280;21982;49.804;24.072;2023-02-11T08:41:55;98238.13;;;2.05;52.17
35878;BME280;21982;49.804;24.072;2023-02-11T08:44:22;98230.19;;;2.06;52.72
35878;BME280;21982;49.804;24.072;2023-02-11T08:46:49;98211.06;;;2.06;52.03
35878;BME280;21982;49.804;24.072;2023-02-11T08:49:18;98214.63;;;2.16;51.71
35878;BME280;21982;49.804;24.072;2023-02-11T08:51:47;98141.16;;;1.85;51.94
35878;BME280;21982;49.804;24.072;2023-02-11T08:54:12;98183.72;;;1.98;51.94
35878;BME280;21982;49.804;24.072;2023-02-11T08:56:38;98218.53;;;2.10;51.97
35878;BME280;21982;49.804;24.072;2023-02-11T08:59:05;98219.81;;;2.28;51.82
35878;BME280;21982;49.804;24.072;2023-02-11T09:01:40;98068.44;;;1.57;51.59
35878;BME280;21982;49.804;24.072;2023-02-11T09:04:16;98055.66;;;1.65;51.29
35878;BME280;21982;49.804;24.072;2023-02-11T09:06:41;98201.84;;;2.70;51.30
35878;BME280;21982;49.804;24.072;2023-02-11T09:09:10;98191.38;;;2.92;51.34
35878;BME280;21982;49.804;24.072;2023-02-11T09:11:36;98024.38;;;1.98;50.06
35878;BME280;21982;49.804;24.072;2023-02-11T09:14:02;98175.69;;;2.81;50.16
35878;BME280;21982;49.804;24.072;2023-02-11T09:16:30;98088.78;;;2.33;50.47
35878;BME280;21982;49.804;24.072;2023-02-11T09:18:57;98172.25;;;3.03;50.31
35878;BME280;21982;49.804;24.072;2023-02-11T09:21:23;98116.25;;;2.72;50.19
35878;BME280;21982;49.804;24.072;2023-02-11T09:23:48;98163.94;;;2.98;49.74
35878;BME280;21982;49.804;24.072;2023-02-11T09:26:16;98163.31;;;2.94;49.86
35878;BME280;21982;49.804;24.072;2023-02-11T09:28:41;98130.41;;;2.69;49.96
35878;BME280;21982;49.804;24.072;2023-02-11T09:31:09;98011.56;;;1.95;50.12
35878;BME280;21982;49.804;24.072;2023-02-11T09:33:35;98146.78;;;2.83;49.74
35878;BME280;21982;49.804;24.072;2023-02-11T09:36:03;98075.47;;;2.47;49.96
35878;BME280;21982;49.804;24.072;2023-02-11T09:38:29;98091.41;;;2.66;50.01
35878;BME280;21982;49.804;24.072;2023-02-11T09:40:55;98089.47;;;2.80;49.29
35878;BME280;21982;49.804;24.072;2023-02-11T09:43:43;98052.78;;;2.70;49.18
35878;BME280;21982;49.804;24.072;2023-02-11T09:46:15;98088.41;;;2.82;49.65
35878;BME280;21982;49.804;24.072;2023-02-11T09:48:43;98059.56;;;2.73;48.94
35878;BME280;21982;49.804;24.072;2023-02-11T09:51:32;98107.78;;;3.02;49.01
35878;BME280;21982;49.804;24.072;2023-02-11T09:54:04;98029.38;;;2.24;49.84
35878;BME280;21982;49.804;24.072;2023-02-11T09:56:31;97963.25;;;2.01;49.20
35878;BME280;21982;49.804;24.072;2023-02-11T09:58:56;98072.47;;;2.96;48.81
35878;BME280;21982;49.804;24.072;2023-02-11T10:07:20;98062.78;;;3.19;49.30
35878;BME280;21982;49.804;24.072;2023-02-11T10:15:51;98054.06;;;3.62;48.82
35878;BME280;21982;49.804;24.072;2023-02-11T10:18:50;98044.53;;;3.61;48.36
35878;BME280;21982;49.804;24.072;2023-02-11T10:21:49;98023.75;;;3.48;48.34
35878;BME280;21982;49.804;24.072;2023-02-11T10:24:18;97837.78;;;2.34;48.10
35878;BME280;21982;49.804;24.072;2023-02-11T10:26:44;97517.84;;;0.15;48.39
35878;BME280;21982;49.804;24.072;2023-02-11T10:29:49;98008.19;;;3.88;48.31
35878;BME280;21982;49.804;24.072;2023-02-11T10:32:38;98014.06;;;4.01;47.63
35878;BME280;21982;49.804;24.072;2023-02-11T10:35:16;97975.72;;;4.00;47.69
35878;BME280;21982;49.804;24.072;2023-02-11T10:37:43;97866.81;;;3.77;47.63
35878;BME280;21982;49.804;24.072;2023-02-11T10:40:21;97997.97;;;4.96;46.45
35878;BME280;21982;49.804;24.072;2023-02-11T10:42:50;97949.97;;;4.55;46.36
35878;BME280;21982;49.804;24.072;2023-02-11T10:45:42;97863.47;;;4.06;46.18
35878;BME280;21982;49.804;24.072;2023-02-11T10:51:18;97979.81;;;6.63;45.68
35878;BME280;21982;49.804;24.072;2023-02-11T10:56:36;97927.75;;;7.64;43.06
35878;BME280;21982;49.804;24.072;2023-02-11T10:59:06;97887.00;;;7.76;42.64
35878;BME280;21982;49.804;24.072;2023-02-11T11:01:48;97967.38;;;7.98;41.46
35878;BME280;21982;49.804;24.072;2023-02-11T11:07:30;97905.72;;;8.25;41.41
35878;BME280;21982;49.804;24.072;2023-02-11T11:09:57;97917.00;;;8.43;41.15
35878;BME280;21982;49.804;24.072;2023-02-11T11:15:23;97829.06;;;7.58;40.42
35878;BME280;21982;49.804;24.072;2023-02-11T11:17:59;97805.56;;;7.73;40.25
35878;BME280;21982;49.804;24.072;2023-02-11T11:20:33;97877.28;;;8.11;40.26
35878;BME280;21982;49.804;24.072;2023-02-11T11:23:12;97869.75;;;8.24;39.64
35878;BME280;21982;49.804;24.072;2023-02-11T11:25:42;97903.13;;;8.07;40.02
35878;BME280;21982;49.804;24.072;2023-02-11T11:28:19;97803.72;;;7.65;40.43
35878;BME280;21982;49.804;24.072;2023-02-11T11:30:46;97920.34;;;8.53;40.06
35878;BME280;21982;49.804;24.072;2023-02-11T11:33:20;97912.63;;;8.60;40.03
35878;BME280;21982;49.804;24.072;2023-02-11T11:36:01;97891.88;;;8.81;39.42
35878;BME280;21982;49.804;24.072;2023-02-11T11:38:29;97901.41;;;8.74;39.79
35878;BME280;21982;49.804;24.072;2023-02-11T11:41:15;97886.22;;;8.60;39.20
35878;BME280;21982;49.804;24.072;2023-02-11T11:44:00;97906.06;;;8.80;39.39
35878;BME280;21982;49.804;24.072;2023-02-11T11:46:35;97822.66;;;8.37;39.35
35878;BME280;21982;49.804;24.072;2023-02-11T11:49:27;97859.69;;;8.19;39.61
35878;BME280;21982;49.804;24.072;2023-02-11T11:54:32;97902.97;;;9.66;38.54
35878;BME280;21982;49.804;24.072;2023-02-11T11:57:12;97821.84;;;9.58;38.23
35878;BME280;21982;49.804;24.072;2023-02-11T11:59:39;97874.28;;;10.02;38.61
35878;BME280;21982;49.804;24.072;2023-02-11T12:07:37;97867.91;;;8.66;39.86
35878;BME280;21982;49.804;24.072;2023-02-11T12:10:28;97871.94;;;9.27;39.61
35878;BME280;21982;49.804;24.072;2023-02-11T12:13:06;97863.66;;;9.38;38.55
35878;BME280;21982;49.804;24.072;2023-02-11T12:15:45;97857.69;;;8.71;39.12
35878;BME280;21982;49.804;24.072;2023-02-11T12:24:09;97813.75;;;9.52;38.50
35878;BME280;21982;49.804;24.072;2023-02-11T12:26:53;97845.88;;;9.88;37.72
35878;BME280;21982;49.804;24.072;2023-02-11T12:35:00;97883.38;;;9.99;37.87
35878;BME280;21982;49.804;24.072;2023-02-11T12:37:41;97791.13;;;9.49;37.58
35878;BME280;21982;49.804;24.072;2023-02-11T12:40:24;97886.63;;;10.26;37.53
35878;BME280;21982;49.804;24.072;2023-02-11T13:02:20;97822.19;;;5.70;40.98
35878;BME280;21982;49.804;24.072;2023-02-11T13:04:51;97808.38;;;5.31;41.85
35878;BME280;21982;49.804;24.072;2023-02-11T13:07:28;97749.94;;;4.72;42.28
35878;BME280;21982;49.804;24.072;2023-02-11T13:12:45;97592.56;;;3.10;43.14
35878;BME280;21982;49.804;24.072;2023-02-11T13:15:31;97802.81;;;4.58;42.60
35878;BME280;21982;49.804;24.072;2023-02-11T13:23:33;97835.41;;;4.46;43.28
35878;BME280;21982;49.804;24.072;2023-02-11T13:31:35;97767.69;;;3.82;44.58
35878;BME280;21982;49.804;24.072;2023-02-11T13:34:01;97771.31;;;3.91;44.39
35878;BME280;21982;49.804;24.072;2023-02-11T13:36:28;97779.88;;;4.02;44.71
35878;BME280;21982;49.804;24.072;2023-02-11T13:39:02;97747.16;;;3.78;44.84
35878;BME280;21982;49.804;24.072;2023-02-11T13:43:58;97785.38;;;3.80;45.16
35878;BME280;21982;49.804;24.072;2023-02-11T13:46:25;97669.75;;;2.95;45.28
35878;BME280;21982;49.804;24.072;2023-02-11T13:48:52;97672.16;;;3.08;45.44
35878;BME280;21982;49.804;24.072;2023-02-11T13:51:39;97775.78;;;3.60;45.48
35878;BME280;21982;49.804;24.072;2023-02-11T13:54:06;97665.28;;;2.86;45.83
35878;BME280;21982;49.804;24.072;2023-02-11T13:56:36;97760.44;;;3.46;46.27
35878;BME280;21982;49.804;24.072;2023-02-11T14:02:19;97640.72;;;2.67;46.13
35878;BME280;21982;49.804;24.072;2023-02-11T14:10:55;97776.56;;;3.20;47.13
35878;BME280;21982;49.804;24.072;2023-02-11T14:13:29;97774.84;;;3.30;47.00
35878;BME280;21982;49.804;24.072;2023-02-11T14:18:36;97773.88;;;3.31;47.42
35878;BME280;21982;49.804;24.072;2023-02-11T14:21:54;97697.63;;;2.75;47.71
35878;BME280;21982;49.804;24.072;2023-02-11T14:31:37;97785.94;;;3.23;47.46
35878;BME280;21982;49.804;24.072;2023-02-11T14:37:02;97811.56;;;3.19;48.16
35878;BME280;21982;49.804;24.072;2023-02-11T14:39:38;97792.78;;;3.14;48.22
35878;BME280;21982;49.804;24.072;2023-02-11T14:42:16;97777.00;;;2.95;48.21
35878;BME280;21982;49.804;24.072;2023-02-11T14:44:43;97797.09;;;2.94;48.17
35878;BME280;21982;49.804;24.072;2023-02-11T14:47:17;97754.47;;;2.83;48.54
35878;BME280;21982;49.804;24.072;2023-02-11T14:49:43;97805.47;;;3.09;48.44
35878;BME280;21982;49.804;24.072;2023-02-11T14:52:30;97801.88;;;3.10;48.35
35878;BME280;21982;49.804;24.072;2023-02-11T14:57:46;97795.75;;;3.00;48.99
35878;BME280;21982;49.804;24.072;2023-02-11T15:00:19;97788.88;;;2.99;49.09
35878;BME280;21982;49.804;24.072;2023-02-11T15:02:45;97696.78;;;2.33;49.37
35878;BME280;21982;49.804;24.072;2023-02-11T15:05:24;97784.41;;;2.90;49.32
35878;BME280;21982;49.804;24.072;2023-02-11T15:07:56;97654.91;;;2.03;49.52
35878;BME280;21982;49.804;24.072;2023-02-11T15:10:30;97291.00;;;-0.57;49.46
35878;BME280;21982;49.804;24.072;2023-02-11T15:12:57;97733.25;;;2.55;49.24
35878;BME280;21982;49.804;24.072;2023-02-11T15:15:25;97777.97;;;2.73;50.25
35878;BME280;21982;49.804;24.072;2023-02-11T15:17:51;97665.28;;;1.93;50.35
35878;BME280;21982;49.804;24.072;2023-02-11T15:20:25;97575.75;;;1.17;49.83
35878;BME280;21982;49.804;24.072;2023-02-11T15:22:55;97773.81;;;2.71;50.14
35878;BME280;21982;49.804;24.072;2023-02-11T15:25:22;97587.59;;;1.53;50.22
35878;BME280;21982;49.804;24.072;2023-02-11T15:27:53;97755.44;;;2.61;50.76